sensor_id;sensor_type;location;lat;lon;timestamp;pressure;altitude;pressure_sealevel;temperature;humidity
58622;BME280;44389;51.578;5.456;2024-03-23T00:54:31;100925.59;;;5.32;100.00
58622;BME280;44389;51.578;5.456;2024-03-23T00:56:56;100928.09;;;5.30;100.00
58622;BME280;44389;51.578;5.456;2024-03-23T00:59:21;100931.50;;;5.31;100.00
58622;BME280;44389;51.578;5.456;2024-03-23T01:01:52;100938.16;;;5.27;100.00
58622;BME280;44389;51.578;5.456;2024-03-23T01:04:17;100920.34;;;5.28;100.00
58622;BME280;44389;51.578;5.456;2024-03-23T01:06:42;100924.50;;;5.26;100.00
58622;BME280;44389;51.578;5.456;2024-03-23T01:09:07;100928.47;;;5.21;100.00
58622;BME280;44389;51.578;5.456;2024-03-23T01:11:35;100929.38;;;5.22;100.00
58622;BME280;44389;51.578;5.456;2024-03-23T01:14:01;100940.63;;;5.25;100.00
58622;BME280;44389;51.578;5.456;2024-03-23T01:16:26;100940.31;;;5.19;100.00
58622;BME280;44389;51.578;5.456;2024-03-23T01:18:51;100930.75;;;5.15;100.00
58622;BME280;44389;51.578;5.456;2024-03-23T01:21:17;100927.91;;;5.10;100.00
58622;BME280;44389;51.578;5.456;2024-03-23T01:23:42;100917.78;;;5.12;100.00
58622;BME280;44389;51.578;5.456;2024-03-23T01:26:07;100915.06;;;5.09;100.00
58622;BME280;44389;51.578;5.456;2024-03-23T01:28:33;100917.44;;;5.06;100.00
58622;BME280;44389;51.578;5.456;2024-03-23T01:30:58;100917.56;;;5.07;100.00
58622;BME280;44389;51.578;5.456;2024-03-23T01:33:23;100908.84;;;5.04;100.00
58622;BME280;44389;51.578;5.456;2024-03-23T01:35:48;100900.22;;;5.02;100.00
58622;BME280;44389;51.578;5.456;2024-03-23T01:38:14;100898.56;;;5.02;100.00
58622;BME280;44389;51.578;5.456;2024-03-23T01:40:39;100889.13;;;5.01;100.00
58622;BME280;44389;51.578;5.456;2024-03-23T01:43:05;100888.16;;;4.99;100.00
58622;BME280;44389;51.578;5.456;2024-03-23T01:45:33;100885.53;;;4.98;100.00
58622;BME280;44389;51.578;5.456;2024-03-23T01:47:59;100885.59;;;4.99;100.00
58622;BME280;44389;51.578;5.456;2024-03-23T01:50:25;100877.88;;;4.98;100.00
58622;BME280;44389;51.578;5.456;2024-03-23T01:52:50;100880.41;;;4.98;100.00
58622;BME280;44389;51.578;5.456;2024-03-23T01:55:16;100863.25;;;4.95;100.00
58622;BME280;44389;51.578;5.456;2024-03-23T01:57:41;100858.16;;;4.95;100.00
58622;BME280;44389;51.578;5.456;2024-03-23T02:00:07;100852.19;;;4.94;100.00
58622;BME280;44389;51.578;5.456;2024-03-23T02:02:33;100858.22;;;4.97;100.00
58622;BME280;44389;51.578;5.456;2024-03-23T02:04:58;100863.41;;;4.98;100.00
58622;BME280;44389;51.578;5.456;2024-03-23T02:07:24;100873.72;;;5.00;100.00
58622;BME280;44389;51.578;5.456;2024-03-23T02:09:51;100874.59;;;5.00;100.00
58622;BME280;44389;51.578;5.456;2024-03-23T02:12:16;100880.50;;;4.99;100.00
58622;BME280;44389;51.578;5.456;2024-03-23T02:14:42;100874.59;;;5.00;100.00
58622;BME280;44389;51.578;5.456;2024-03-23T02:17:08;100877.06;;;4.99;100.00
58622;BME280;44389;51.578;5.456;2024-03-23T02:19:34;100872.09;;;5.02;100.00
58622;BME280;44389;51.578;5.456;2024-03-23T02:21:59;100864.44;;;5.02;100.00
58622;BME280;44389;51.578;5.456;2024-03-23T02:24:24;100865.34;;;5.02;100.00
58622;BME280;44389;51.578;5.456;2024-03-23T02:26:50;100858.47;;;5.01;100.00
58622;BME280;44389;51.578;5.456;2024-03-23T02:29:15;100857.56;;;5.01;100.00
58622;BME280;44389;51.578;5.456;2024-03-23T02:31:40;100854.00;;;4.97;100.00
58622;BME280;44389;51.578;5.456;2024-03-23T02:34:06;100854.72;;;4.94;100.00
58622;BME280;44389;51.578;5.456;2024-03-23T02:36:31;100850.41;;;4.93;100.00
58622;BME280;44389;51.578;5.456;2024-03-23T02:38:56;100858.06;;;4.93;100.00
58622;BME280;44389;51.578;5.456;2024-03-23T02:41:21;100858.94;;;4.94;100.00
58622;BME280;44389;51.578;5.456;2024-03-23T02:43:51;100861.41;;;4.92;100.00
58622;BME280;44389;51.578;5.456;2024-03-23T02:46:16;100855.34;;;4.90;100.00
58622;BME280;44389;51.578;5.456;2024-03-23T02:48:42;100854.41;;;4.88;100.00
58622;BME280;44389;51.578;5.456;2024-03-23T02:51:07;100851.84;;;4.88;100.00
58622;BME280;44389;51.578;5.456;2024-03-23T02:53:32;100850.88;;;4.86;100.00
58622;BME280;44389;51.578;5.456;2024-03-23T02:55:58;100849.94;;;4.84;100.00
58622;BME280;44389;51.578;5.456;2024-03-23T02:58:24;100853.44;;;4.86;100.00
58622;BME280;44389;51.578;5.456;2024-03-23T03:00:50;100855.03;;;4.84;100.00
58622;BME280;44389;51.578;5.456;2024-03-23T03:03:15;100850.66;;;4.82;100.00
58622;BME280;44389;51.578;5.456;2024-03-23T03:05:40;100854.84;;;4.81;100.00
58622;BME280;44389;51.578;5.456;2024-03-23T03:08:06;100855.66;;;4.80;100.00
58622;BME280;44389;51.578;5.456;2024-03-23T03:10:31;100860.75;;;4.80;100.00
58622;BME280;44389;51.578;5.456;2024-03-23T03:13:00;100852.16;;;4.78;100.00
58622;BME280;44389;51.578;5.456;2024-03-23T03:15:25;100860.75;;;4.80;100.00
58622;BME280;44389;51.578;5.456;2024-03-23T03:17:50;100866.69;;;4.79;100.00
58622;BME280;44389;51.578;5.456;2024-03-23T03:20:15;100866.50;;;4.76;100.00
58622;BME280;44389;51.578;5.456;2024-03-23T03:22:42;100865.72;;;4.77;100.00
58622;BME280;44389;51.578;5.456;2024-03-23T03:25:08;100862.13;;;4.73;100.00
58622;BME280;44389;51.578;5.456;2024-03-23T03:27:33;100869.69;;;4.72;100.00
58622;BME280;44389;51.578;5.456;2024-03-23T03:30:00;100863.47;;;4.67;100.00
58622;BME280;44389;51.578;5.456;2024-03-23T03:32:28;100859.94;;;4.65;100.00
58622;BME280;44389;51.578;5.456;2024-03-23T03:34:54;100859.63;;;4.58;100.00
58622;BME280;44389;51.578;5.456;2024-03-23T03:37:19;100855.75;;;4.50;100.00
58622;BME280;44389;51.578;5.456;2024-03-23T03:39:44;100857.19;;;4.45;100.00
58622;BME280;44389;51.578;5.456;2024-03-23T03:42:09;100852.47;;;4.36;100.00
58622;BME280;44389;51.578;5.456;2024-03-23T03:44:35;100849.69;;;4.32;100.00
58622;BME280;44389;51.578;5.456;2024-03-23T03:47:02;100850.91;;;4.23;100.00
58622;BME280;44389;51.578;5.456;2024-03-23T03:49:27;100850.75;;;4.20;100.00
58622;BME280;44389;51.578;5.456;2024-03-23T03:51:52;100847.69;;;4.11;100.00
58622;BME280;44389;51.578;5.456;2024-03-23T03:54:18;100842.31;;;4.06;100.00
58622;BME280;44389;51.578;5.456;2024-03-23T03:56:43;100846.22;;;4.00;100.00
58622;BME280;44389;51.578;5.456;2024-03-23T03:59:08;100841.47;;;3.91;100.00
58622;BME280;44389;51.578;5.456;2024-03-23T04:01:34;100840.31;;;3.86;100.00
58622;BME280;44389;51.578;5.456;2024-03-23T04:04:01;100842.78;;;3.84;100.00
58622;BME280;44389;51.578;5.456;2024-03-23T04:06:26;100845.06;;;3.79;100.00
58622;BME280;44389;51.578;5.456;2024-03-23T04:08:51;100848.31;;;3.77;100.00
58622;BME280;44389;51.578;5.456;2024-03-23T04:11:16;100844.13;;;3.77;100.00
58622;BME280;44389;51.578;5.456;2024-03-23T04:13:43;100848.25;;;3.75;100.00
58622;BME280;44389;51.578;5.456;2024-03-23T04:16:08;100839.53;;;3.72;100.00
58622;BME280;44389;51.578;5.456;2024-03-23T04:18:36;100848.59;;;3.67;100.00
58622;BME280;44389;51.578;5.456;2024-03-23T04:21:02;100845.09;;;3.65;100.00
58622;BME280;44389;51.578;5.456;2024-03-23T04:23:27;100849.91;;;3.60;100.00
58622;BME280;44389;51.578;5.456;2024-03-23T04:25:53;100849.81;;;3.58;100.00
58622;BME280;44389;51.578;5.456;2024-03-23T04:28:18;100847.91;;;3.54;100.00
58622;BME280;44389;51.578;5.456;2024-03-23T04:30:44;100842.72;;;3.53;100.00
58622;BME280;44389;51.578;5.456;2024-03-23T04:33:09;100845.97;;;3.50;100.00
58622;BME280;44389;51.578;5.456;2024-03-23T04:35:35;100844.97;;;3.48;100.00
58622;BME280;44389;51.578;5.456;2024-03-23T04:38:00;100843.22;;;3.47;100.00
58622;BME280;44389;51.578;5.456;2024-03-23T04:40:26;100843.06;;;3.44;100.00
58622;BME280;44389;51.578;5.456;2024-03-23T04:42:52;100841.28;;;3.43;100.00
58622;BME280;44389;51.578;5.456;2024-03-23T04:45:17;100842.91;;;3.41;100.00
58622;BME280;44389;51.578;5.456;2024-03-23T04:47:42;100844.47;;;3.39;100.00
58622;BME280;44389;51.578;5.456;2024-03-23T04:50:08;100848.56;;;3.37;100.00
58622;BME280;44389;51.578;5.456;2024-03-23T04:52:35;100849.28;;;3.34;100.00
58622;BME280;44389;51.578;5.456;2024-03-23T04:55:01;100853.41;;;3.32;100.00
58622;BME280;44389;51.578;5.456;2024-03-23T04:57:26;100848.22;;;3.31;100.00
58622;BME280;44389;51.578;5.456;2024-03-23T04:59:51;100848.22;;;3.31;100.00
58622;BME280;44389;51.578;5.456;2024-03-23T05:02:16;100850.59;;;3.27;100.00
58622;BME280;44389;51.578;5.456;2024-03-23T05:04:42;100844.53;;;3.25;100.00
58622;BME280;44389;51.578;5.456;2024-03-23T05:07:07;100845.22;;;3.23;100.00
58622;BME280;44389;51.578;5.456;2024-03-23T05:09:33;100838.47;;;3.23;100.00
58622;BME280;44389;51.578;5.456;2024-03-23T05:12:01;100844.25;;;3.21;100.00
58622;BME280;44389;51.578;5.456;2024-03-23T05:14:27;100835.63;;;3.19;100.00
58622;BME280;44389;51.578;5.456;2024-03-23T05:16:53;100836.53;;;3.19;100.00
58622;BME280;44389;51.578;5.456;2024-03-23T05:19:18;100839.84;;;3.18;100.00
58622;BME280;44389;51.578;5.456;2024-03-23T05:21:43;100842.31;;;3.17;100.00
58622;BME280;44389;51.578;5.456;2024-03-23T05:24:09;100831.06;;;3.13;100.00
58622;BME280;44389;51.578;5.456;2024-03-23T05:26:35;100844.78;;;3.15;100.00
58622;BME280;44389;51.578;5.456;2024-03-23T05:29:01;100848.19;;;3.16;100.00
58622;BME280;44389;51.578;5.456;2024-03-23T05:31:28;100840.38;;;3.12;100.00
58622;BME280;44389;51.578;5.456;2024-03-23T05:33:53;100841.41;;;3.16;100.00
58622;BME280;44389;51.578;5.456;2024-03-23T05:36:19;100844.56;;;3.12;100.00
58622;BME280;44389;51.578;5.456;2024-03-23T05:38:45;100836.94;;;3.12;100.00
58622;BME280;44389;51.578;5.456;2024-03-23T05:41:10;100837.84;;;3.12;100.00
58622;BME280;44389;51.578;5.456;2024-03-23T05:43:35;100841.25;;;3.13;100.00
58622;BME280;44389;51.578;5.456;2024-03-23T05:46:01;100844.56;;;3.12;100.00
58622;BME280;44389;51.578;5.456;2024-03-23T05:48:44;100845.66;;;3.16;100.00
58622;BME280;44389;51.578;5.456;2024-03-23T05:51:09;100838.09;;;3.17;100.00
58622;BME280;44389;51.578;5.456;2024-03-23T05:53:34;100837.22;;;3.17;100.00
58622;BME280;44389;51.578;5.456;2024-03-23T05:56:01;100832.13;;;3.17;100.00
58622;BME280;44389;51.578;5.456;2024-03-23T05:58:31;100836.31;;;3.16;100.00
58622;BME280;44389;51.578;5.456;2024-03-23T06:01:01;100838.09;;;3.17;100.00
58622;BME280;44389;51.578;5.456;2024-03-23T06:03:27;100838.09;;;3.17;100.00
58622;BME280;44389;51.578;5.456;2024-03-23T06:05:52;100830.53;;;3.19;100.00
58622;BME280;44389;51.578;5.456;2024-03-23T06:08:21;100841.78;;;3.22;100.00
58622;BME280;44389;51.578;5.456;2024-03-23T06:10:46;100834.06;;;3.21;100.00
58622;BME280;44389;51.578;5.456;2024-03-23T06:13:12;100836.69;;;3.22;100.00
58622;BME280;44389;51.578;5.456;2024-03-23T06:15:38;100844.34;;;3.22;100.00
58622;BME280;44389;51.578;5.456;2024-03-23T06:18:04;100850.50;;;3.26;100.00
58622;BME280;44389;51.578;5.456;2024-03-23T06:20:30;100844.72;;;3.28;100.00
58622;BME280;44389;51.578;5.456;2024-03-23T06:22:55;100844.00;;;3.31;100.00
58622;BME280;44389;51.578;5.456;2024-03-23T06:25:20;100852.19;;;3.40;100.00
58622;BME280;44389;51.578;5.456;2024-03-23T06:27:46;100852.22;;;3.55;100.00
58622;BME280;44389;51.578;5.456;2024-03-23T06:30:12;100848.88;;;3.71;100.00
58622;BME280;44389;51.578;5.456;2024-03-23T06:32:37;100846.13;;;3.83;100.00
58622;BME280;44389;51.578;5.456;2024-03-23T06:35:02;100841.31;;;3.88;100.00
58622;BME280;44389;51.578;5.456;2024-03-23T06:37:33;100848.47;;;3.95;100.00
58622;BME280;44389;51.578;5.456;2024-03-23T06:39:58;100846.38;;;4.03;100.00
58622;BME280;44389;51.578;5.456;2024-03-23T06:42:24;100851.66;;;4.06;100.00
58622;BME280;44389;51.578;5.456;2024-03-23T06:44:49;100854.56;;;4.12;100.00
58622;BME280;44389;51.578;5.456;2024-03-23T06:47:14;100852.66;;;4.24;100.00
58622;BME280;44389;51.578;5.456;2024-03-23T06:49:39;100853.16;;;4.34;100.00
58622;BME280;44389;51.578;5.456;2024-03-23T06:52:05;100850.31;;;4.44;100.00
58622;BME280;44389;51.578;5.456;2024-03-23T06:54:30;100857.53;;;4.51;100.00
58622;BME280;44389;51.578;5.456;2024-03-23T06:56:55;100859.44;;;4.55;100.00
58622;BME280;44389;51.578;5.456;2024-03-23T06:59:21;100856.66;;;4.51;100.00
58622;BME280;44389;51.578;5.456;2024-03-23T07:01:46;100854.34;;;4.55;100.00
58622;BME280;44389;51.578;5.456;2024-03-23T07:04:11;100853.81;;;4.61;100.00
58622;BME280;44389;51.578;5.456;2024-03-23T07:06:43;100859.81;;;4.78;100.00
58622;BME280;44389;51.578;5.456;2024-03-23T07:09:09;100851.84;;;4.88;100.00
58622;BME280;44389;51.578;5.456;2024-03-23T07:11:34;100858.53;;;5.03;100.00
58622;BME280;44389;51.578;5.456;2024-03-23T07:14:00;100865.16;;;5.16;100.00
58622;BME280;44389;51.578;5.456;2024-03-23T07:16:26;100863.88;;;5.24;100.00
58622;BME280;44389;51.578;5.456;2024-03-23T07:18:52;100866.34;;;5.22;100.00
58622;BME280;44389;51.578;5.456;2024-03-23T07:21:17;100869.63;;;5.20;100.00
58622;BME280;44389;51.578;5.456;2024-03-23T07:23:42;100871.00;;;5.13;100.00
58622;BME280;44389;51.578;5.456;2024-03-23T07:26:11;100867.31;;;5.08;100.00
58622;BME280;44389;51.578;5.456;2024-03-23T07:28:37;100864.69;;;5.06;100.00
58622;BME280;44389;51.578;5.456;2024-03-23T07:31:03;100874.19;;;5.09;100.00
58622;BME280;44389;51.578;5.456;2024-03-23T07:33:29;100866.47;;;5.07;100.00
58622;BME280;44389;51.578;5.456;2024-03-23T07:35:54;100866.22;;;5.03;100.00
58622;BME280;44389;51.578;5.456;2024-03-23T07:38:20;100869.09;;;5.09;100.00
58622;BME280;44389;51.578;5.456;2024-03-23T07:40:45;100858.63;;;5.21;100.00
58622;BME280;44389;51.578;5.456;2024-03-23T07:43:10;100861.72;;;5.32;100.00
58622;BME280;44389;51.578;5.456;2024-03-23T07:45:35;100859.00;;;5.45;100.00
58622;BME280;44389;51.578;5.456;2024-03-23T07:48:03;100853.69;;;5.58;100.00
58622;BME280;44389;51.578;5.456;2024-03-23T07:50:28;100855.03;;;5.68;100.00
58622;BME280;44389;51.578;5.456;2024-03-23T07:52:53;100859.69;;;5.77;100.00
58622;BME280;44389;51.578;5.456;2024-03-23T07:55:19;100854.09;;;5.84;100.00
58622;BME280;44389;51.578;5.456;2024-03-23T07:57:44;100852.63;;;5.89;100.00
58622;BME280;44389;51.578;5.456;2024-03-23T08:00:10;100865.91;;;5.99;100.00
58622;BME280;44389;51.578;5.456;2024-03-23T08:02:35;100855.84;;;6.02;100.00
58622;BME280;44389;51.578;5.456;2024-03-23T08:05:00;100856.94;;;6.07;100.00
58622;BME280;44389;51.578;5.456;2024-03-23T08:07:26;100862.50;;;6.16;100.00
58622;BME280;44389;51.578;5.456;2024-03-23T08:09:51;100860.44;;;6.27;100.00
58622;BME280;44389;51.578;5.456;2024-03-23T08:12:16;100856.47;;;6.34;100.00
58622;BME280;44389;51.578;5.456;2024-03-23T08:14:42;100859.84;;;6.51;100.00
58622;BME280;44389;51.578;5.456;2024-03-23T08:17:07;100859.91;;;6.52;100.00
58622;BME280;44389;51.578;5.456;2024-03-23T08:19:33;100842.09;;;6.55;100.00
58622;BME280;44389;51.578;5.456;2024-03-23T08:21:58;100852.50;;;6.58;100.00
58622;BME280;44389;51.578;5.456;2024-03-23T08:24:23;100852.47;;;6.77;100.00
58622;BME280;44389;51.578;5.456;2024-03-23T08:26:48;100854.94;;;6.75;100.00
58622;BME280;44389;51.578;5.456;2024-03-23T08:29:14;100861.59;;;6.89;100.00
58622;BME280;44389;51.578;5.456;2024-03-23T08:31:39;100857.78;;;7.01;100.00
58622;BME280;44389;51.578;5.456;2024-03-23T08:34:04;100860.75;;;7.30;100.00
58622;BME280;44389;51.578;5.456;2024-03-23T08:36:30;100863.16;;;7.46;100.00
58622;BME280;44389;51.578;5.456;2024-03-23T08:38:55;100853.84;;;7.48;100.00
58622;BME280;44389;51.578;5.456;2024-03-23T08:41:21;100855.03;;;7.56;100.00
58622;BME280;44389;51.578;5.456;2024-03-23T08:43:46;100846.03;;;7.66;100.00
58622;BME280;44389;51.578;5.456;2024-03-23T08:46:15;100847.69;;;7.85;100.00
58622;BME280;44389;51.578;5.456;2024-03-23T08:48:45;100847.16;;;7.73;100.00
58622;BME280;44389;51.578;5.456;2024-03-23T08:51:12;100837.03;;;7.76;100.00
58622;BME280;44389;51.578;5.456;2024-03-23T08:53:38;100845.16;;;7.87;100.00
58622;BME280;44389;51.578;5.456;2024-03-23T08:56:04;100839.41;;;7.93;100.00
58622;BME280;44389;51.578;5.456;2024-03-23T08:58:31;100842.66;;;8.10;100.00
58622;BME280;44389;51.578;5.456;2024-03-23T09:01:03;100842.41;;;8.47;100.00
58622;BME280;44389;51.578;5.456;2024-03-23T09:03:29;100848.28;;;8.67;100.00
58622;BME280;44389;51.578;5.456;2024-03-23T09:05:54;100841.72;;;8.51;100.00
58622;BME280;44389;51.578;5.456;2024-03-23T09:08:20;100836.88;;;8.15;100.00
58622;BME280;44389;51.578;5.456;2024-03-23T09:10:47;100843.34;;;7.84;100.00
58622;BME280;44389;51.578;5.456;2024-03-23T09:13:13;100850.91;;;7.60;100.00
58622;BME280;44389;51.578;5.456;2024-03-23T09:15:47;100857.38;;;7.31;100.00
58622;BME280;44389;51.578;5.456;2024-03-23T09:18:13;100859.28;;;6.96;100.00
58622;BME280;44389;51.578;5.456;2024-03-23T09:20:38;100854.81;;;6.72;100.00
58622;BME280;44389;51.578;5.456;2024-03-23T09:23:03;100857.34;;;6.52;100.00
58622;BME280;44389;51.578;5.456;2024-03-23T09:25:29;100856.47;;;6.34;100.00
58622;BME280;44389;51.578;5.456;2024-03-23T09:27:54;100851.22;;;6.31;100.00
58622;BME280;44389;51.578;5.456;2024-03-23T09:30:19;100850.31;;;6.66;100.00
58622;BME280;44389;51.578;5.456;2024-03-23T09:32:45;100842.16;;;6.95;100.00
58622;BME280;44389;51.578;5.456;2024-03-23T09:35:10;100839.31;;;7.28;100.00
58622;BME280;44389;51.578;5.456;2024-03-23T09:37:36;100838.28;;;7.65;100.00
58622;BME280;44389;51.578;5.456;2024-03-23T09:40:02;100830.16;;;7.75;100.00
58622;BME280;44389;51.578;5.456;2024-03-23T09:42:28;100834.75;;;8.05;100.00
58622;BME280;44389;51.578;5.456;2024-03-23T09:44:53;100830.72;;;8.55;100.00
58622;BME280;44389;51.578;5.456;2024-03-23T09:47:19;100822.28;;;8.82;100.00
58622;BME280;44389;51.578;5.456;2024-03-23T09:49:44;100828.38;;;9.34;100.00
58622;BME280;44389;51.578;5.456;2024-03-23T09:52:10;100824.03;;;9.58;100.00
58622;BME280;44389;51.578;5.456;2024-03-23T09:54:35;100819.13;;;9.93;92.19
58622;BME280;44389;51.578;5.456;2024-03-23T09:57:01;100828.72;;;10.24;94.18
58622;BME280;44389;51.578;5.456;2024-03-23T09:59:26;100819.72;;;10.38;89.00
58622;BME280;44389;51.578;5.456;2024-03-23T10:01:52;100827.44;;;10.98;88.74
58622;BME280;44389;51.578;5.456;2024-03-23T10:04:40;100826.44;;;10.93;84.42
58622;BME280;44389;51.578;5.456;2024-03-23T10:07:13;100813.28;;;10.83;79.72
58622;BME280;44389;51.578;5.456;2024-03-23T10:09:39;100820.50;;;10.36;78.53
58622;BME280;44389;51.578;5.456;2024-03-23T10:12:12;100828.28;;;9.83;86.03
58622;BME280;44389;51.578;5.456;2024-03-23T10:14:39;100833.44;;;9.31;91.79
58622;BME280;44389;51.578;5.456;2024-03-23T10:17:21;100841.63;;;8.27;94.87
58622;BME280;44389;51.578;5.456;2024-03-23T10:19:55;100836.13;;;7.14;100.00
58622;BME280;44389;51.578;5.456;2024-03-23T10:22:22;100838.56;;;6.71;100.00
58622;BME280;44389;51.578;5.456;2024-03-23T10:24:48;100838.16;;;6.44;100.00
58622;BME280;44389;51.578;5.456;2024-03-23T10:27:19;100837.75;;;6.35;100.00
58622;BME280;44389;51.578;5.456;2024-03-23T10:29:45;100838.47;;;6.50;100.00
58622;BME280;44389;51.578;5.456;2024-03-23T10:32:11;100845.69;;;6.59;100.00
58622;BME280;44389;51.578;5.456;2024-03-23T10:34:37;100859.28;;;6.58;100.00
58622;BME280;44389;51.578;5.456;2024-03-23T10:37:04;100870.66;;;6.45;100.00
58622;BME280;44389;51.578;5.456;2024-03-23T10:39:32;100881.09;;;5.96;100.00
58622;BME280;44389;51.578;5.456;2024-03-23T10:42:00;100861.59;;;5.63;100.00
58622;BME280;44389;51.578;5.456;2024-03-23T10:44:27;100853.44;;;5.54;100.00
58622;BME280;44389;51.578;5.456;2024-03-23T10:46:54;100847.31;;;5.50;100.00
58622;BME280;44389;51.578;5.456;2024-03-23T10:49:25;100849.53;;;5.60;100.00
58622;BME280;44389;51.578;5.456;2024-03-23T10:51:51;100841.09;;;5.98;100.00
58622;BME280;44389;51.578;5.456;2024-03-23T10:54:16;100838.47;;;6.50;100.00
58622;BME280;44389;51.578;5.456;2024-03-23T10:56:43;100837.75;;;7.31;100.00
58622;BME280;44389;51.578;5.456;2024-03-23T10:59:09;100828.00;;;8.07;100.00
58622;BME280;44389;51.578;5.456;2024-03-23T11:01:35;100831.91;;;8.88;100.00
58622;BME280;44389;51.578;5.456;2024-03-23T11:04:00;100830.25;;;9.38;100.00
58622;BME280;44389;51.578;5.456;2024-03-23T11:06:34;100827.38;;;10.35;100.00
58622;BME280;44389;51.578;5.456;2024-03-23T11:09:00;100824.03;;;10.99;95.18
58622;BME280;44389;51.578;5.456;2024-03-23T11:11:25;100821.41;;;11.64;88.49
58622;BME280;44389;51.578;5.456;2024-03-23T11:13:52;100819.28;;;12.19;87.28
58622;BME280;44389;51.578;5.456;2024-03-23T11:16:25;100821.91;;;12.61;82.25
58622;BME280;44389;51.578;5.456;2024-03-23T11:18:53;100834.03;;;13.08;77.43
58622;BME280;44389;51.578;5.456;2024-03-23T11:21:51;100851.94;;;11.81;76.90
58622;BME280;44389;51.578;5.456;2024-03-23T11:24:16;100819.66;;;9.29;75.51
58622;BME280;44389;51.578;5.456;2024-03-23T11:26:44;100828.97;;;8.32;96.09
58622;BME280;44389;51.578;5.456;2024-03-23T11:29:13;100822.94;;;7.87;100.00
58622;BME280;44389;51.578;5.456;2024-03-23T11:31:39;100820.63;;;7.94;100.00
58622;BME280;44389;51.578;5.456;2024-03-23T11:34:10;100822.50;;;7.98;100.00
58622;BME280;44389;51.578;5.456;2024-03-23T11:36:35;100823.00;;;8.78;100.00
58622;BME280;44389;51.578;5.456;2024-03-23T11:39:14;100823.72;;;9.48;100.00
58622;BME280;44389;51.578;5.456;2024-03-23T11:41:59;100813.56;;;10.64;99.46
58622;BME280;44389;51.578;5.456;2024-03-23T11:44:25;100819.00;;;11.05;95.40
58622;BME280;44389;51.578;5.456;2024-03-23T11:46:51;100815.22;;;11.58;84.75
58622;BME280;44389;51.578;5.456;2024-03-23T11:49:29;100815.16;;;11.91;74.44
58622;BME280;44389;51.578;5.456;2024-03-23T11:51:55;100820.25;;;11.86;66.43
58622;BME280;44389;51.578;5.456;2024-03-23T11:54:22;100817.69;;;12.25;72.77
58622;BME280;44389;51.578;5.456;2024-03-23T11:56:55;100825.53;;;11.93;58.79
58622;BME280;44389;51.578;5.456;2024-03-23T11:59:34;100822.06;;;11.56;56.61
58622;BME280;44389;51.578;5.456;2024-03-23T12:02:00;100822.53;;;11.07;55.60
58622;BME280;44389;51.578;5.456;2024-03-23T12:04:27;100822.94;;;10.91;59.40
58622;BME280;44389;51.578;5.456;2024-03-23T12:07:18;100827.25;;;10.92;64.26
58622;BME280;44389;51.578;5.456;2024-03-23T12:09:44;100824.72;;;9.79;61.16
58622;BME280;44389;51.578;5.456;2024-03-23T12:12:14;100823.97;;;9.06;68.63
58622;BME280;44389;51.578;5.456;2024-03-23T12:14:41;100822.69;;;8.46;71.20
58622;BME280;44389;51.578;5.456;2024-03-23T12:17:12;100817.34;;;7.98;77.11
58622;BME280;44389;51.578;5.456;2024-03-23T12:19:38;100821.13;;;7.64;77.44
58622;BME280;44389;51.578;5.456;2024-03-23T12:22:05;100815.91;;;7.61;82.49
58622;BME280;44389;51.578;5.456;2024-03-23T12:24:34;100820.31;;;7.86;86.80
58622;BME280;44389;51.578;5.456;2024-03-23T12:27:00;100806.91;;;8.60;84.40
58622;BME280;44389;51.578;5.456;2024-03-23T12:29:28;100789.97;;;9.65;79.69
58622;BME280;44389;51.578;5.456;2024-03-23T12:31:53;100788.78;;;10.37;79.41
58622;BME280;44389;51.578;5.456;2024-03-23T12:34:18;100791.88;;;9.72;73.65
58622;BME280;44389;51.578;5.456;2024-03-23T12:36:44;100801.38;;;8.97;77.33
58622;BME280;44389;51.578;5.456;2024-03-23T12:39:09;100806.75;;;8.34;88.61
58622;BME280;44389;51.578;5.456;2024-03-23T12:41:34;100799.28;;;7.95;92.10
58622;BME280;44389;51.578;5.456;2024-03-23T12:43:59;100805.63;;;7.61;92.47
58622;BME280;44389;51.578;5.456;2024-03-23T12:46:25;100800.22;;;7.33;96.42
58622;BME280;44389;51.578;5.456;2024-03-23T12:48:50;100800.06;;;7.09;98.06
58622;BME280;44389;51.578;5.456;2024-03-23T12:51:15;100794.69;;;7.03;100.00
58622;BME280;44389;51.578;5.456;2024-03-23T12:53:41;100797.53;;;6.89;100.00
58622;BME280;44389;51.578;5.456;2024-03-23T12:56:06;100813.09;;;6.94;100.00
58622;BME280;44389;51.578;5.456;2024-03-23T12:58:31;100804.38;;;7.10;100.00
58622;BME280;44389;51.578;5.456;2024-03-23T13:00:58;100806.38;;;7.17;99.04
58622;BME280;44389;51.578;5.456;2024-03-23T13:03:23;100806.50;;;7.20;96.69
58622;BME280;44389;51.578;5.456;2024-03-23T13:05:52;100816.84;;;7.22;100.00
58622;BME280;44389;51.578;5.456;2024-03-23T13:08:17;100811.94;;;6.87;100.00
58622;BME280;44389;51.578;5.456;2024-03-23T13:10:42;100811.50;;;6.77;100.00
58622;BME280;44389;51.578;5.456;2024-03-23T13:13:08;100820.78;;;6.74;100.00
58622;BME280;44389;51.578;5.456;2024-03-23T13:15:33;100813.41;;;7.02;100.00
58622;BME280;44389;51.578;5.456;2024-03-23T13:17:58;100813.59;;;7.26;100.00
58622;BME280;44389;51.578;5.456;2024-03-23T13:20:24;100818.38;;;7.38;100.00
58622;BME280;44389;51.578;5.456;2024-03-23T13:22:49;100821.56;;;7.13;100.00
58622;BME280;44389;51.578;5.456;2024-03-23T13:25:16;100814.78;;;6.94;100.00
58622;BME280;44389;51.578;5.456;2024-03-23T13:27:43;100805.69;;;6.61;100.00
58622;BME280;44389;51.578;5.456;2024-03-23T13:30:09;100806.34;;;6.39;100.00
58622;BME280;44389;51.578;5.456;2024-03-23T13:32:34;100801.84;;;6.33;100.00
58622;BME280;44389;51.578;5.456;2024-03-23T13:35:00;100793.44;;;6.36;100.00
58622;BME280;44389;51.578;5.456;2024-03-23T13:37:25;100790.19;;;6.40;100.00
58622;BME280;44389;51.578;5.456;2024-03-23T13:39:51;100779.09;;;6.39;100.00